createdAt,value
2019-05-20T00:02:05.764Z,30.63
2019-05-20T00:04:35.333Z,33.20
2019-05-20T00:07:05.189Z,29.43
2019-05-20T00:09:37.085Z,29.53
2019-05-20T00:12:06.431Z,35.17
2019-05-20T00:14:35.963Z,30.90
2019-05-20T00:17:05.606Z,29.17
2019-05-20T00:19:35.243Z,30.27
2019-05-20T00:22:04.919Z,31.43
2019-05-20T00:24:34.525Z,33.63
2019-05-20T00:27:04.140Z,36.40
2019-05-20T00:29:33.657Z,36.43
2019-05-20T00:32:03.360Z,37.47
2019-05-20T00:34:35.475Z,36.30
2019-05-20T00:37:04.314Z,37.13
2019-05-20T00:39:33.937Z,35.90
2019-05-20T00:42:03.522Z,40.20
2019-05-20T00:44:33.044Z,38.90
2019-05-20T00:47:02.593Z,49.53
2019-05-20T00:49:32.091Z,40.30
2019-05-20T00:52:01.706Z,42.67
2019-05-20T00:54:31.438Z,43.23
2019-05-20T00:57:00.945Z,40.33
2019-05-20T00:59:30.468Z,44.80
2019-05-20T01:02:00.585Z,42.70
2019-05-20T01:04:30.139Z,41.90
2019-05-20T01:06:59.724Z,48.60
2019-05-20T01:09:29.443Z,47.13
2019-05-20T01:11:58.973Z,48.23
2019-05-20T01:14:29.978Z,50.80
2019-05-20T01:17:03.450Z,51.23
2019-05-20T01:19:33.080Z,49.20
2019-05-20T01:22:02.588Z,51.63
2019-05-20T01:24:32.567Z,54.07
2019-05-20T01:27:02.209Z,46.43
2019-05-20T01:29:31.743Z,52.10
2019-05-20T01:32:02.456Z,49.23
2019-05-20T01:34:31.966Z,54.60
2019-05-20T01:37:01.512Z,58.17
2019-05-20T01:39:31.107Z,50.67
2019-05-20T01:42:00.676Z,51.33
2019-05-20T01:44:30.282Z,50.73
2019-05-20T01:46:59.829Z,53.47
2019-05-20T01:49:29.352Z,54.60
2019-05-20T01:51:58.863Z,52.67
2019-05-20T01:54:28.557Z,52.43
2019-05-20T01:56:58.084Z,59.60
2019-05-20T01:59:27.738Z,52.80
2019-05-20T02:01:57.510Z,54.03
2019-05-20T02:04:27.171Z,60.63
2019-05-20T02:06:56.772Z,52.67
2019-05-20T02:09:26.430Z,49.93
2019-05-20T02:11:56.035Z,48.70
2019-05-20T02:14:36.134Z,53.07
2019-05-20T02:17:05.746Z,57.37
2019-05-20T02:19:35.531Z,51.80
2019-05-20T02:22:05.183Z,58.93
2019-05-20T02:24:34.719Z,56.87
2019-05-20T02:27:04.301Z,55.53
2019-05-20T02:29:33.933Z,61.87
2019-05-20T02:32:03.523Z,58.80
2019-05-20T02:34:33.057Z,53.80
2019-05-20T02:37:02.859Z,58.80
2019-05-20T02:39:32.525Z,54.50
2019-05-20T02:42:02.303Z,53.23
2019-05-20T02:44:31.889Z,47.70
2019-05-20T02:47:01.407Z,48.53
2019-05-20T02:49:30.926Z,45.30
2019-05-20T02:52:00.538Z,41.97
2019-05-20T02:54:30.064Z,37.93
2019-05-20T02:56:59.766Z,36.00
2019-05-20T02:59:29.387Z,36.70
2019-05-20T03:01:58.937Z,36.10
2019-05-20T03:04:28.982Z,33.93
2019-05-20T03:06:58.511Z,35.73
2019-05-20T03:09:28.080Z,53.00
2019-05-20T03:11:57.658Z,36.57
2019-05-20T03:14:27.206Z,39.67
2019-05-20T03:16:56.703Z,36.13
2019-05-20T03:19:26.372Z,37.77
2019-05-20T03:21:56.157Z,37.67
2019-05-20T03:24:25.919Z,35.53
2019-05-20T03:26:55.513Z,32.70
2019-05-20T03:29:25.169Z,37.23
2019-05-20T03:31:54.702Z,34.00
2019-05-20T03:34:45.067Z,33.47
2019-05-20T03:36:55.852Z,36.17
2019-05-20T03:39:25.515Z,37.03
2019-05-20T03:41:55.042Z,31.87
2019-05-20T03:44:24.850Z,30.23
2019-05-20T03:46:54.370Z,38.40
2019-05-20T03:49:23.954Z,31.00
2019-05-20T03:51:53.577Z,29.50
2019-05-20T03:54:23.258Z,36.27
2019-05-20T03:56:55.160Z,30.80
2019-05-20T03:59:24.360Z,32.27
2019-05-20T04:01:53.954Z,32.80
2019-05-20T04:04:25.134Z,42.20
2019-05-20T04:06:56.804Z,44.20
2019-05-20T04:09:26.414Z,35.90
2019-05-20T04:11:56.417Z,36.40
2019-05-20T04:14:26.083Z,31.03
2019-05-20T04:16:55.774Z,36.13
2019-05-20T04:19:25.410Z,35.17
2019-05-20T04:21:54.994Z,31.80
2019-05-20T04:24:24.714Z,34.03
2019-05-20T04:26:59.267Z,34.37
2019-05-20T04:29:32.377Z,33.50
2019-05-20T04:32:01.988Z,35.30
2019-05-20T04:34:32.736Z,35.93
2019-05-20T04:37:02.374Z,38.90
2019-05-20T04:39:31.983Z,42.60
2019-05-20T04:42:01.633Z,38.17
2019-05-20T04:44:31.962Z,36.50
2019-05-20T04:47:01.489Z,33.63
2019-05-20T04:49:31.027Z,37.47
2019-05-20T04:52:00.639Z,33.80
2019-05-20T04:54:30.149Z,35.47
2019-05-20T04:56:59.744Z,38.67
2019-05-20T04:59:29.306Z,42.20
2019-05-20T05:01:58.913Z,32.50
2019-05-20T05:04:30.439Z,32.83
2019-05-20T05:07:00.088Z,30.20
2019-05-20T05:09:29.929Z,29.50
2019-05-20T05:11:59.591Z,30.13
2019-05-20T05:14:33.546Z,30.80
2019-05-20T05:17:03.219Z,41.67
2019-05-20T05:19:32.818Z,50.63
2019-05-20T05:22:02.570Z,36.97
2019-05-20T05:24:32.172Z,36.87
2019-05-20T05:27:01.789Z,34.30
2019-05-20T05:29:31.554Z,28.67
2019-05-20T05:32:02.709Z,31.00
2019-05-20T05:34:32.494Z,37.37
2019-05-20T05:37:02.611Z,35.03
2019-05-20T05:39:32.202Z,33.00
2019-05-20T05:42:04.632Z,30.77
2019-05-20T05:44:34.233Z,31.40
2019-05-20T05:47:03.775Z,34.87
2019-05-20T05:49:33.290Z,35.00
2019-05-20T05:52:03.394Z,29.30
2019-05-20T05:54:33.012Z,32.27
2019-05-20T05:57:02.564Z,34.13
2019-05-20T05:59:32.177Z,31.40
2019-05-20T06:02:02.185Z,31.03
2019-05-20T06:04:32.352Z,31.67
2019-05-20T06:07:02.060Z,25.30
2019-05-20T06:09:31.567Z,30.17
2019-05-20T06:12:01.088Z,26.97
2019-05-20T06:14:30.751Z,33.03
2019-05-20T06:17:00.352Z,26.10
2019-05-20T06:19:30.197Z,29.40
2019-05-20T06:21:59.853Z,29.00
2019-05-20T06:24:29.367Z,24.90
2019-05-20T06:26:59.123Z,24.67
2019-05-20T06:29:28.681Z,25.97
2019-05-20T06:31:58.192Z,25.70
2019-05-20T06:34:28.104Z,26.50
2019-05-20T06:37:02.648Z,28.93
2019-05-20T06:39:32.771Z,29.90
2019-05-20T06:42:02.477Z,28.20
2019-05-20T06:44:32.111Z,29.17
2019-05-20T06:47:03.317Z,22.17
2019-05-20T06:49:32.877Z,25.33
2019-05-20T06:52:02.555Z,25.70
2019-05-20T06:54:32.116Z,25.70
2019-05-20T06:57:01.858Z,26.00
2019-05-20T06:59:31.918Z,28.73
2019-05-20T07:02:01.650Z,25.90
2019-05-20T07:04:32.873Z,22.97
2019-05-20T07:07:12.462Z,23.60
2019-05-20T07:09:34.014Z,25.20
2019-05-20T07:12:06.359Z,24.37
2019-05-20T07:14:37.283Z,19.27
2019-05-20T07:17:06.879Z,19.20
2019-05-20T07:19:36.468Z,21.23
2019-05-20T07:22:06.098Z,23.40
2019-05-20T07:24:35.849Z,19.20
2019-05-20T07:27:05.690Z,22.20
2019-05-20T07:29:35.278Z,17.60
2019-05-20T07:32:05.013Z,17.07
2019-05-20T07:34:34.528Z,17.30
2019-05-20T07:37:04.464Z,17.40
2019-05-20T07:39:34.509Z,16.97
2019-05-20T07:42:04.164Z,17.20
2019-05-20T07:44:33.871Z,20.00
2019-05-20T07:47:03.672Z,21.03
2019-05-20T07:49:33.828Z,17.20
2019-05-20T07:52:04.266Z,18.53
2019-05-20T07:54:34.496Z,20.40
2019-05-20T07:57:07.104Z,21.70
2019-05-20T07:59:37.954Z,19.00
2019-05-20T08:02:08.333Z,17.10
2019-05-20T08:04:57.317Z,16.40
2019-05-20T08:07:41.377Z,17.93
2019-05-20T08:09:58.544Z,19.40
2019-05-20T08:12:28.260Z,16.60
2019-05-20T08:14:57.940Z,18.40
2019-05-20T08:17:27.818Z,17.93
2019-05-20T08:19:59.459Z,17.60
2019-05-20T08:22:29.201Z,16.27
2019-05-20T08:24:58.980Z,15.83
2019-05-20T08:27:28.682Z,16.10
2019-05-20T08:29:58.869Z,16.03
2019-05-20T08:32:28.745Z,17.30
2019-05-20T08:34:58.318Z,17.37
2019-05-20T08:37:44.260Z,14.77
2019-05-20T08:39:59.540Z,14.53
2019-05-20T08:42:29.163Z,14.53
2019-05-20T08:44:58.786Z,14.03
2019-05-20T08:47:28.338Z,23.37
2019-05-20T08:49:57.974Z,18.77
2019-05-20T08:52:27.539Z,15.60
2019-05-20T08:54:57.119Z,13.47
2019-05-20T08:57:26.680Z,14.63
2019-05-20T08:59:56.743Z,13.83
2019-05-20T09:02:26.240Z,16.50
2019-05-20T09:04:55.924Z,13.77
2019-05-20T09:07:25.923Z,13.53
2019-05-20T09:09:55.505Z,14.83
2019-05-20T09:12:25.124Z,13.13
2019-05-20T09:14:54.658Z,12.17
2019-05-20T09:17:24.188Z,12.93
2019-05-20T09:19:53.813Z,14.73
2019-05-20T09:22:23.410Z,13.37
2019-05-20T09:24:53.110Z,15.43
2019-05-20T09:27:23.044Z,12.90
2019-05-20T09:29:52.651Z,12.57
2019-05-20T09:32:22.406Z,12.37
2019-05-20T09:34:52.172Z,12.67
2019-05-20T09:37:21.828Z,15.83
2019-05-20T09:39:51.847Z,13.97
2019-05-20T09:42:21.926Z,15.83
2019-05-20T09:44:51.643Z,13.90
2019-05-20T09:47:21.156Z,19.00
2019-05-20T09:49:51.047Z,15.27
2019-05-20T09:52:20.804Z,15.33
2019-05-20T09:54:50.320Z,13.43
2019-05-20T09:57:20.029Z,13.97
2019-05-20T09:59:49.559Z,15.50
2019-05-20T10:02:19.173Z,15.43
2019-05-20T10:04:50.283Z,14.90
2019-05-20T10:07:19.990Z,14.27
2019-05-20T10:09:49.719Z,15.17
2019-05-20T10:12:19.339Z,24.60
2019-05-20T10:14:52.543Z,13.57
2019-05-20T10:17:20.221Z,14.60
2019-05-20T10:19:49.764Z,13.87
2019-05-20T10:22:19.350Z,13.20
2019-05-20T10:24:50.427Z,14.80
2019-05-20T10:27:22.302Z,12.33
2019-05-20T10:29:51.569Z,13.03
2019-05-20T10:32:21.155Z,12.93
2019-05-20T10:34:51.117Z,11.40
2019-05-20T10:37:20.919Z,12.10
2019-05-20T10:39:50.549Z,11.83
2019-05-20T10:42:20.959Z,12.40
2019-05-20T10:44:51.346Z,17.80
2019-05-20T10:47:21.152Z,13.90
2019-05-20T10:49:50.837Z,13.93
2019-05-20T10:52:20.520Z,14.00
2019-05-20T10:54:50.469Z,12.97
2019-05-20T10:57:20.190Z,13.27
2019-05-20T10:59:49.836Z,12.50
2019-05-20T11:02:19.605Z,11.60
2019-05-20T11:04:49.562Z,13.20
2019-05-20T11:07:19.274Z,12.13
2019-05-20T11:09:48.881Z,11.60
2019-05-20T11:12:18.747Z,11.17
2019-05-20T11:14:48.991Z,20.30
2019-05-20T11:17:18.562Z,11.30
2019-05-20T11:19:48.243Z,21.97
2019-05-20T11:22:18.116Z,12.17
2019-05-20T11:24:47.650Z,13.60
2019-05-20T11:27:17.342Z,12.23
2019-05-20T11:29:47.142Z,11.07
2019-05-20T11:32:16.836Z,11.90
2019-05-20T11:34:46.470Z,15.80
2019-05-20T11:37:16.182Z,11.80
2019-05-20T11:39:45.768Z,14.40
2019-05-20T11:42:15.858Z,12.87
2019-05-20T11:44:45.537Z,13.07
2019-05-20T11:47:15.307Z,13.47
2019-05-20T11:49:45.050Z,13.77
2019-05-20T11:52:14.790Z,15.60
2019-05-20T11:54:44.351Z,16.63
2019-05-20T11:57:13.895Z,13.87
2019-05-20T11:59:45.524Z,14.03
2019-05-20T12:02:15.130Z,15.10
2019-05-20T12:04:44.950Z,13.50
2019-05-20T12:07:14.435Z,13.90
2019-05-20T12:09:49.703Z,14.83
2019-05-20T12:12:15.508Z,14.20
2019-05-20T12:14:46.900Z,15.10
2019-05-20T12:17:16.508Z,13.70
2019-05-20T12:19:46.164Z,15.90
2019-05-20T12:22:15.943Z,15.60
2019-05-20T12:24:45.610Z,14.43
2019-05-20T12:27:15.466Z,14.10
2019-05-20T12:29:45.219Z,16.53
2019-05-20T12:32:15.091Z,16.67
2019-05-20T12:34:44.806Z,16.10
2019-05-20T12:37:14.542Z,17.23
2019-05-20T12:39:44.093Z,16.50
2019-05-20T12:42:14.181Z,17.07
2019-05-20T12:44:43.963Z,15.83
2019-05-20T12:47:13.591Z,20.67
2019-05-20T12:49:43.206Z,15.03
2019-05-20T12:52:12.870Z,15.10
2019-05-20T12:54:42.539Z,14.03
2019-05-20T12:57:12.239Z,14.80
2019-05-20T12:59:41.894Z,16.03
2019-05-20T13:02:11.488Z,16.17
2019-05-20T13:04:41.225Z,22.53
2019-05-20T13:07:10.826Z,15.43
2019-05-20T13:09:40.586Z,18.33
2019-05-20T13:12:10.411Z,14.97
2019-05-20T13:14:40.082Z,15.13
2019-05-20T13:17:09.808Z,15.17
2019-05-20T13:19:39.476Z,13.40
2019-05-20T13:22:09.120Z,15.80
2019-05-20T13:24:38.699Z,19.20
2019-05-20T13:27:08.840Z,12.20
2019-05-20T13:29:38.552Z,12.13
2019-05-20T13:32:08.241Z,11.40
2019-05-20T13:34:37.780Z,13.40
2019-05-20T13:37:07.644Z,12.50
2019-05-20T13:39:39.098Z,11.90
2019-05-20T13:42:10.774Z,14.83
2019-05-20T13:44:40.373Z,14.90
2019-05-20T13:47:09.898Z,11.03
2019-05-20T13:49:39.545Z,10.97
2019-05-20T13:52:09.065Z,11.60
2019-05-20T13:54:40.333Z,11.10
2019-05-20T13:57:12.951Z,15.10
2019-05-20T13:59:41.260Z,13.73
2019-05-20T14:02:10.979Z,10.83
2019-05-20T14:04:40.840Z,13.30
2019-05-20T14:07:10.439Z,14.97
2019-05-20T14:09:40.252Z,13.47
2019-05-20T14:12:09.781Z,13.10
2019-05-20T14:14:39.309Z,12.53
2019-05-20T14:17:08.943Z,10.10
2019-05-20T14:19:38.580Z,10.17
2019-05-20T14:22:08.245Z,10.30
2019-05-20T14:24:37.837Z,19.23
2019-05-20T14:27:08.061Z,11.40
2019-05-20T14:29:37.765Z,11.10
2019-05-20T14:32:07.338Z,11.80
2019-05-20T14:34:36.987Z,12.93
2019-05-20T14:37:06.611Z,22.97
2019-05-20T14:39:36.136Z,12.83
2019-05-20T14:42:05.766Z,13.13
2019-05-20T14:44:35.753Z,11.60
2019-05-20T14:47:06.983Z,12.63
2019-05-20T14:49:38.617Z,13.40
2019-05-20T14:52:08.691Z,16.03
2019-05-20T14:54:38.462Z,13.13
2019-05-20T14:57:08.089Z,13.20
2019-05-20T14:59:37.832Z,15.70
2019-05-20T15:02:07.514Z,13.60
2019-05-20T15:04:37.231Z,21.57
2019-05-20T15:07:06.851Z,13.70
2019-05-20T15:09:36.477Z,13.33
2019-05-20T15:12:08.294Z,13.93
2019-05-20T15:14:37.894Z,14.33
2019-05-20T15:17:07.601Z,15.57
2019-05-20T15:19:37.181Z,17.30
2019-05-20T15:22:06.914Z,14.40
2019-05-20T15:24:36.562Z,13.90
2019-05-20T15:27:06.389Z,13.13
2019-05-20T15:29:35.967Z,16.70
2019-05-20T15:32:05.699Z,11.87
2019-05-20T15:34:36.566Z,13.53
2019-05-20T15:37:06.135Z,11.90
2019-05-20T15:39:35.842Z,13.70
2019-05-20T15:42:05.633Z,13.23
2019-05-20T15:44:35.289Z,13.87
2019-05-20T15:47:04.955Z,13.87
2019-05-20T15:49:34.634Z,11.30
2019-05-20T15:52:04.230Z,12.23
2019-05-20T15:54:34.063Z,11.40
2019-05-20T15:57:04.180Z,22.80
2019-05-20T15:59:45.422Z,11.00
2019-05-20T16:02:05.016Z,11.77
2019-05-20T16:04:35.310Z,10.20
2019-05-20T16:07:04.916Z,17.87
2019-05-20T16:09:34.569Z,12.10
2019-05-20T16:12:04.214Z,10.93
2019-05-20T16:14:33.876Z,15.90
2019-05-20T16:17:03.614Z,12.43
2019-05-20T16:19:33.630Z,12.40
2019-05-20T16:22:06.649Z,10.67
2019-05-20T16:24:36.264Z,17.70
2019-05-20T16:27:05.930Z,11.00
2019-05-20T16:29:35.527Z,16.33
2019-05-20T16:32:05.266Z,13.53
2019-05-20T16:34:34.860Z,10.03
2019-05-20T16:37:06.452Z,12.13
2019-05-20T16:39:36.256Z,8.80
2019-05-20T16:42:05.991Z,12.90
2019-05-20T16:44:35.652Z,9.80
2019-05-20T16:47:05.328Z,9.13
2019-05-20T16:49:35.019Z,9.43
2019-05-20T16:52:04.748Z,8.77
2019-05-20T16:54:34.335Z,9.77
2019-05-20T16:57:03.932Z,8.70
2019-05-20T16:59:33.430Z,12.43
2019-05-20T17:02:03.862Z,10.20
2019-05-20T17:04:33.590Z,10.87
2019-05-20T17:07:03.326Z,14.43
2019-05-20T17:09:33.050Z,10.47
2019-05-20T17:12:04.384Z,10.03
2019-05-20T17:14:37.041Z,9.67
2019-05-20T17:17:06.703Z,10.90
2019-05-20T17:19:36.543Z,10.77
2019-05-20T17:22:07.189Z,10.87
2019-05-20T17:24:36.929Z,12.87
2019-05-20T17:27:07.003Z,11.40
2019-05-20T17:29:36.626Z,11.03
2019-05-20T17:32:06.287Z,12.93
2019-05-20T17:34:36.097Z,10.23
2019-05-20T17:37:05.763Z,11.43
2019-05-20T17:39:35.378Z,15.63
2019-05-20T17:42:05.145Z,29.60
2019-05-20T17:44:35.249Z,12.67
2019-05-20T17:47:05.014Z,12.30
2019-05-20T17:49:37.421Z,12.07
2019-05-20T17:52:07.358Z,12.00
2019-05-20T17:54:37.138Z,17.77
2019-05-20T17:57:06.762Z,12.83
2019-05-20T17:59:36.413Z,15.43
2019-05-20T18:02:07.624Z,13.97
2019-05-20T18:04:37.158Z,13.67
2019-05-20T18:07:06.895Z,13.70
2019-05-20T18:09:40.095Z,14.30
2019-05-20T18:12:09.700Z,12.70
2019-05-20T18:14:42.015Z,19.90
2019-05-20T18:17:13.446Z,13.83
2019-05-20T18:19:43.116Z,13.27
2019-05-20T18:22:12.824Z,11.30
2019-05-20T18:24:42.566Z,12.80
2019-05-20T18:27:12.256Z,13.27
2019-05-20T18:29:41.972Z,12.70
2019-05-20T18:32:11.741Z,13.90
2019-05-20T18:34:41.553Z,12.17
2019-05-20T18:37:11.348Z,11.63
2019-05-20T18:39:41.041Z,11.73
2019-05-20T18:42:10.754Z,11.03
2019-05-20T18:44:40.354Z,14.00
2019-05-20T18:47:09.964Z,11.80
2019-05-20T18:49:41.298Z,14.13
2019-05-20T18:52:11.041Z,15.00
2019-05-20T18:54:40.771Z,16.50
2019-05-20T18:57:10.415Z,14.10
2019-05-20T18:59:40.207Z,19.87
2019-05-20T19:02:09.920Z,14.77
2019-05-20T19:04:41.244Z,15.83
2019-05-20T19:07:12.396Z,15.13
2019-05-20T19:09:43.673Z,15.57
2019-05-20T19:12:14.087Z,15.70
2019-05-20T19:14:44.091Z,16.10
2019-05-20T19:17:13.873Z,15.83
2019-05-20T19:19:43.681Z,16.73
2019-05-20T19:22:13.440Z,16.40
2019-05-20T19:24:43.173Z,20.43
2019-05-20T19:27:12.867Z,18.30
2019-05-20T19:29:45.190Z,18.60
2019-05-20T19:32:16.729Z,18.83
2019-05-20T19:35:09.264Z,19.67
2019-05-20T19:37:39.055Z,26.53
2019-05-20T19:40:09.483Z,20.40
2019-05-20T19:42:39.239Z,23.03
2019-05-20T19:45:09.758Z,20.20
2019-05-20T19:47:41.100Z,28.90
2019-05-20T19:50:14.859Z,27.37
2019-05-20T19:52:44.516Z,22.60
2019-05-20T19:55:18.456Z,26.70
2019-05-20T19:57:46.039Z,22.00
2019-05-20T20:00:18.973Z,26.40
2019-05-20T20:02:48.652Z,27.47
2019-05-20T20:05:22.011Z,23.37
2019-05-20T20:07:51.558Z,25.10
2019-05-20T20:10:21.083Z,27.00
2019-05-20T20:12:50.720Z,23.83
2019-05-20T20:15:21.142Z,22.70
2019-05-20T20:17:51.087Z,25.00
2019-05-20T20:20:23.920Z,28.40
2019-05-20T20:22:55.125Z,30.00
2019-05-20T20:25:24.713Z,27.07
2019-05-20T20:27:54.416Z,28.30
2019-05-20T20:30:24.163Z,32.13
2019-05-20T20:32:53.683Z,28.20
2019-05-20T20:35:37.278Z,26.70
2019-05-20T20:37:54.800Z,26.23
2019-05-20T20:40:24.454Z,24.83
2019-05-20T20:42:55.915Z,31.23
2019-05-20T20:45:26.049Z,27.30
2019-05-20T20:47:55.783Z,24.47
2019-05-20T20:50:25.513Z,29.20
2019-05-20T20:52:55.171Z,28.80
2019-05-20T20:55:24.825Z,26.73
2019-05-20T20:57:54.461Z,28.70
2019-05-20T21:00:24.144Z,28.47
2019-05-20T21:02:54.036Z,39.57
2019-05-20T21:05:24.714Z,28.20
2019-05-20T21:07:54.354Z,27.27
2019-05-20T21:10:24.096Z,30.53
2019-05-20T21:12:53.735Z,27.57
2019-05-20T21:15:23.374Z,27.57
2019-05-20T21:17:53.149Z,31.47
2019-05-20T21:20:22.896Z,38.80
2019-05-20T21:22:57.394Z,31.80
2019-05-20T21:25:28.808Z,38.50
2019-05-20T21:27:58.463Z,33.37
2019-05-20T21:30:28.226Z,29.93
2019-05-20T21:33:08.950Z,31.17
2019-05-20T21:35:29.250Z,32.17
2019-05-20T21:37:58.910Z,30.90
2019-05-20T21:40:28.630Z,38.13
2019-05-20T21:42:58.270Z,38.50
2019-05-20T21:45:28.033Z,36.03
2019-05-20T21:47:58.063Z,38.13
2019-05-20T21:50:27.759Z,39.07
2019-05-20T21:52:57.326Z,37.70
2019-05-20T21:55:26.958Z,37.43
2019-05-20T21:57:56.513Z,49.47
2019-05-20T22:00:27.965Z,39.30
2019-05-20T22:02:58.149Z,40.43
2019-05-20T22:05:27.754Z,36.47
2019-05-20T22:07:57.417Z,29.67
2019-05-20T22:10:27.585Z,38.53
2019-05-20T22:12:57.184Z,35.63
2019-05-20T22:15:26.874Z,32.73
2019-05-20T22:17:56.491Z,42.87
2019-05-20T22:20:26.135Z,33.73
2019-05-20T22:23:13.807Z,36.87
2019-05-20T22:25:44.158Z,38.00
2019-05-20T22:28:13.918Z,34.20
2019-05-20T22:30:45.321Z,35.87
2019-05-20T22:33:15.014Z,31.80
2019-05-20T22:35:44.679Z,35.80
2019-05-20T22:38:15.211Z,35.63
2019-05-20T22:40:49.787Z,32.13
2019-05-20T22:43:19.404Z,30.53
2019-05-20T22:45:49.878Z,33.40
2019-05-20T22:48:20.042Z,35.07
2019-05-20T22:50:49.626Z,37.23
2019-05-20T22:53:19.185Z,35.50
2019-05-20T22:55:48.701Z,49.40
2019-05-20T22:58:18.227Z,35.00
2019-05-20T23:00:47.964Z,33.20
2019-05-20T23:03:17.791Z,31.07
2019-05-20T23:05:47.310Z,30.43
2019-05-20T23:08:17.154Z,34.57
2019-05-20T23:10:46.697Z,34.80
2019-05-20T23:13:16.373Z,31.73
2019-05-20T23:15:46.065Z,37.80
2019-05-20T23:18:15.721Z,29.60
2019-05-20T23:20:45.503Z,31.30
2019-05-20T23:23:15.163Z,29.37
2019-05-20T23:25:44.680Z,33.53
2019-05-20T23:28:14.483Z,26.20
2019-05-20T23:30:45.483Z,31.90
2019-05-20T23:33:15.085Z,32.83
2019-05-20T23:35:44.615Z,41.63
2019-05-20T23:38:14.170Z,29.60
2019-05-20T23:40:43.731Z,35.73
2019-05-20T23:43:13.257Z,39.07
2019-05-20T23:45:43.660Z,37.50
2019-05-20T23:48:13.494Z,39.90
2019-05-20T23:50:43.036Z,28.70
2019-05-20T23:53:12.999Z,34.33
2019-05-20T23:55:41.647Z,33.40
2019-05-20T23:58:11.284Z,32.90
